Time;durP1;ratioP1;P1;durP2;ratioP2;P2;SDS_P1;SDS_P2;PMS_P1;PMS_P2;Temp;Humidity;BMP_temperature;BMP_pressure;BME280_temperature;BME280_humidity;BME280_pressure;Samples;Min_cycle;Max_cycle;Signal;HPM_P1;HPM_P2
2022/06/03 00:01:03;;;;;;;5.38;4.88;;;15.20;99.90;;;;;;5018202;28;20081;-58
2022/06/03 00:04:19;;;;;;;5.25;4.82;;;15.10;99.90;;;;;;5019306;28;20314;-58
2022/06/03 00:07:01;;;;;;;6.65;5.20;;;15.10;99.90;;;;;;4993684;28;20104;-58
2022/06/03 00:09:42;;;;;;;5.28;4.78;;;15.00;99.90;;;;;;5019204;28;20042;-59
2022/06/03 00:12:46;;;;;;;5.40;4.78;;;15.00;99.90;;;;;;5018740;28;20073;-58
2022/06/03 00:15:29;;;;;;;4.95;4.50;;;14.90;99.90;;;;;;5017362;28;20309;-58
2022/06/03 00:18:04;;;;;;;7.10;4.95;;;14.90;99.90;;;;;;5018814;28;20049;-59
2022/06/03 00:20:56;;;;;;;7.15;4.82;;;14.80;99.90;;;;;;5018602;28;20032;-58
2022/06/03 00:23:49;;;;;;;8.63;4.97;;;14.70;99.90;;;;;;5019250;28;20037;-59
2022/06/03 00:26:32;;;;;;;6.30;4.88;;;14.70;99.90;;;;;;5018708;28;20022;-60
2022/06/03 00:29:01;;;;;;;5.80;5.20;;;14.70;99.90;;;;;;5017758;28;20087;-59
2022/06/03 00:31:27;;;;;;;6.00;4.97;;;14.70;99.90;;;;;;5018344;28;20184;-59
2022/06/03 00:34:03;;;;;;;6.93;5.18;;;14.70;99.90;;;;;;5019151;28;20107;-59
2022/06/03 00:36:53;;;;;;;6.55;5.55;;;14.70;99.90;;;;;;5018444;28;20030;-59
2022/06/03 00:39:27;;;;;;;5.68;5.18;;;14.70;99.90;;;;;;5018507;28;20021;-59
2022/06/03 00:41:59;;;;;;;5.75;5.20;;;14.60;99.90;;;;;;5018359;28;20129;-60
2022/06/03 00:45:03;;;;;;;5.97;5.38;;;14.60;99.90;;;;;;5018204;28;20279;-60
2022/06/03 00:47:44;;;;;;;5.47;4.80;;;14.60;99.90;;;;;;5018403;28;20062;-60
2022/06/03 00:50:25;;;;;;;6.32;5.07;;;14.50;99.90;;;;;;5018182;28;20037;-59
2022/06/03 00:53:06;;;;;;;5.82;5.18;;;14.50;99.90;;;;;;5018061;28;20392;-59
2022/06/03 00:55:49;;;;;;;5.35;4.85;;;14.40;99.90;;;;;;5018069;28;20033;-59
2022/06/03 00:58:32;;;;;;;5.78;5.22;;;14.40;99.90;;;;;;5018357;28;20034;-60
2022/06/03 01:01:12;;;;;;;5.45;5.05;;;14.30;99.90;;;;;;5017776;28;20063;-60
2022/06/03 01:04:01;;;;;;;6.13;5.18;;;14.30;99.90;;;;;;5018419;28;20018;-60
2022/06/03 01:06:57;;;;;;;6.32;5.60;;;14.40;99.90;;;;;;5017950;28;20033;-60
2022/06/03 01:09:45;;;;;;;5.68;5.28;;;14.30;99.90;;;;;;5018318;28;20041;-60
2022/06/03 01:12:29;;;;;;;8.45;5.72;;;14.20;99.90;;;;;;5017691;28;20299;-60
2022/06/03 01:15:15;;;;;;;5.97;5.40;;;14.20;99.90;;;;;;5017717;28;20058;-60
2022/06/03 01:18:08;;;;;;;6.40;5.80;;;14.10;99.90;;;;;;5017181;28;20038;-59
2022/06/03 01:20:37;;;;;;;6.25;5.30;;;14.20;99.90;;;;;;5018220;28;20037;-60
2022/06/03 01:23:26;;;;;;;6.40;5.38;;;14.30;99.90;;;;;;5017521;28;20069;-60
2022/06/03 01:26:07;;;;;;;6.00;5.40;;;14.20;99.90;;;;;;5017609;28;20306;-60
2022/06/03 01:28:58;;;;;;;6.05;5.45;;;14.20;99.90;;;;;;5017472;28;20025;-59
2022/06/03 01:31:48;;;;;;;6.60;5.95;;;14.10;99.90;;;;;;5017422;28;20033;-59
2022/06/03 01:34:30;;;;;;;6.35;5.75;;;14.00;99.90;;;;;;5000325;28;20053;-60
2022/06/03 01:37:18;;;;;;;6.35;5.75;;;14.10;99.90;;;;;;5016682;28;20030;-60
2022/06/03 01:40:41;;;;;;;6.20;5.60;;;14.10;99.90;;;;;;5017321;28;20030;-60
2022/06/03 01:43:27;;;;;;;9.07;5.65;;;14.10;99.90;;;;;;4977261;28;20485;-60
2022/06/03 01:46:13;;;;;;;6.10;5.50;;;14.00;99.90;;;;;;4976888;28;20034;-60
2022/06/03 01:49:09;;;;;;;6.55;5.90;;;13.90;99.90;;;;;;5011814;28;20053;-59
2022/06/03 01:52:02;;;;;;;7.22;6.05;;;13.90;99.90;;;;;;5016420;28;20045;-60
2022/06/03 01:54:50;;;;;;;5.95;5.35;;;13.80;99.90;;;;;;5017315;28;20022;-60
2022/06/03 01:57:52;;;;;;;6.72;6.13;;;13.70;99.90;;;;;;5017157;28;20113;-60
2022/06/03 02:00:37;;;;;;;6.60;5.50;;;13.70;99.90;;;;;;5017132;28;20033;-60
2022/06/03 02:03:42;;;;;;;7.00;6.32;;;13.70;99.90;;;;;;5017591;28;20042;-59
2022/06/03 02:06:07;;;;;;;7.20;6.50;;;13.60;99.90;;;;;;5003145;28;20070;-59
2022/06/03 02:08:58;;;;;;;7.07;6.38;;;13.70;99.90;;;;;;5017647;28;20076;-59
2022/06/03 02:11:44;;;;;;;6.93;6.22;;;13.70;99.90;;;;;;5016288;28;20049;-60
2022/06/03 02:14:47;;;;;;;8.10;6.00;;;13.70;99.90;;;;;;5016204;28;20056;-59
2022/06/03 02:17:13;;;;;;;;;;;13.60;99.90;;;;;;5017422;28;20113;-60
2022/06/03 02:19:57;;;;;;;6.47;5.82;;;13.80;99.90;;;;;;5016916;28;19944;-60
2022/06/03 02:22:41;;;;;;;7.68;6.72;;;13.70;99.90;;;;;;5016396;28;20053;-60
2022/06/03 02:25:34;;;;;;;7.40;6.55;;;13.60;99.90;;;;;;5016922;28;20030;-60
2022/06/03 02:28:21;;;;;;;8.75;6.78;;;13.80;99.90;;;;;;5016921;28;20109;-59
2022/06/03 02:31:01;;;;;;;7.60;6.90;;;13.70;99.90;;;;;;5016094;28;20029;-60
2022/06/03 02:34:04;;;;;;;7.63;6.93;;;13.80;99.90;;;;;;5016851;28;20058;-59
2022/06/03 02:36:56;;;;;;;8.43;6.63;;;13.80;99.90;;;;;;5016137;28;20302;-60
2022/06/03 02:39:37;;;;;;;8.85;6.88;;;13.70;99.90;;;;;;5016779;28;20022;-60
2022/06/03 02:42:39;;;;;;;7.63;6.72;;;13.80;99.90;;;;;;5016721;28;20121;-60
2022/06/03 02:45:33;;;;;;;8.65;7.10;;;13.70;99.90;;;;;;5016738;28;20026;-60
2022/06/03 02:48:39;;;;;;;8.40;7.18;;;13.70;99.90;;;;;;5016115;28;20083;-60
2022/06/03 02:51:28;;;;;;;7.18;6.47;;;13.70;99.90;;;;;;5017031;28;20040;-60
2022/06/03 02:54:29;;;;;;;7.15;6.45;;;13.70;99.90;;;;;;5016684;28;20390;-59
2022/06/03 02:56:58;;;;;;;8.35;7.05;;;13.70;99.90;;;;;;5016552;28;20033;-60
2022/06/03 02:59:48;;;;;;;7.97;6.70;;;13.50;99.90;;;;;;5017321;28;20049;-60
2022/06/03 03:02:17;;;;;;;7.85;7.05;;;13.50;99.90;;;;;;5020005;28;20049;-60
2022/06/03 03:04:58;;;;;;;7.47;6.70;;;13.50;99.90;;;;;;5019660;28;20049;-60
2022/06/03 03:07:58;;;;;;;7.47;6.72;;;13.60;99.90;;;;;;5020110;28;20064;-60
2022/06/03 03:10:54;;;;;;;10.15;6.72;;;13.70;99.90;;;;;;5020133;28;20041;-60
2022/06/03 03:14:02;;;;;;;7.97;7.20;;;13.80;99.90;;;;;;5020568;28;20034;-60
2022/06/03 03:16:53;;;;;;;7.35;6.65;;;13.90;99.90;;;;;;5019202;28;20052;-60
2022/06/03 03:20:11;;;;;;;8.38;6.85;;;14.10;99.90;;;;;;5019901;28;20279;-60
2022/06/03 03:23:03;;;;;;;7.97;7.28;;;14.10;99.90;;;;;;4979144;28;20118;-60
2022/06/03 03:25:34;;;;;;;8.20;7.40;;;13.90;99.90;;;;;;4962970;28;20038;-60
2022/06/03 03:28:24;;;;;;;8.35;7.35;;;14.00;99.90;;;;;;5000329;28;20038;-61
2022/06/03 03:31:34;;;;;;;10.60;7.35;;;14.00;99.90;;;;;;5019560;28;20367;-59
2022/06/03 03:34:38;;;;;;;9.40;7.82;;;13.90;99.90;;;;;;5019031;28;20131;-60
2022/06/03 03:37:06;;;;;;;8.40;7.47;;;13.90;99.90;;;;;;5019647;28;20044;-59
2022/06/03 03:40:03;;;;;;;8.18;7.38;;;14.00;99.90;;;;;;5019437;28;20121;-59
2022/06/03 03:42:40;;;;;;;9.77;7.70;;;13.90;99.90;;;;;;5019282;28;20344;-59
2022/06/03 03:45:44;;;;;;;8.35;7.55;;;13.80;99.90;;;;;;5018796;28;20433;-59
2022/06/03 03:48:32;;;;;;;8.90;8.00;;;13.70;99.90;;;;;;4959256;29;20043;-59
2022/06/03 03:51:10;;;;;;;9.98;8.15;;;13.50;99.90;;;;;;5013798;28;20056;-59
2022/06/03 03:53:57;;;;;;;9.07;8.13;;;13.40;99.90;;;;;;5019255;28;20030;-59
2022/06/03 03:56:28;;;;;;;10.30;8.40;;;13.60;99.90;;;;;;5019131;28;20440;-59
2022/06/03 03:59:28;;;;;;;10.93;8.50;;;13.60;99.90;;;;;;5019032;28;20397;-59
2022/06/03 04:02:12;;;;;;;10.23;8.25;;;13.50;99.90;;;;;;5018095;28;20050;-59
2022/06/03 04:04:49;;;;;;;10.40;8.25;;;13.50;99.90;;;;;;5018163;28;20076;-59
2022/06/03 04:07:44;;;;;;;8.85;7.85;;;13.40;99.90;;;;;;5019019;28;20333;-59
2022/06/03 04:10:38;;;;;;;10.25;8.88;;;13.40;99.90;;;;;;5004111;28;20042;-59
2022/06/03 04:13:52;;;;;;;11.77;8.80;;;13.50;99.90;;;;;;5017931;28;20033;-59
2022/06/03 04:16:43;;;;;;;9.35;8.40;;;13.70;99.90;;;;;;5017982;28;20167;-59
2022/06/03 04:19:32;;;;;;;9.10;8.15;;;13.60;99.90;;;;;;5018746;28;20022;-59
2022/06/03 04:22:34;;;;;;;10.10;8.05;;;13.60;99.90;;;;;;5019002;28;20117;-59
2022/06/03 04:25:06;;;;;;;9.30;8.40;;;13.70;99.90;;;;;;5018884;28;20413;-59
2022/06/03 04:28:01;;;;;;;9.23;8.32;;;13.60;99.90;;;;;;5018697;28;20040;-59
2022/06/03 04:30:45;;;;;;;9.80;8.80;;;13.60;99.90;;;;;;5018798;28;20102;-59
2022/06/03 04:33:44;;;;;;;9.85;8.57;;;13.50;99.90;;;;;;5017966;28;20386;-59
2022/06/03 04:36:51;;;;;;;9.55;8.55;;;13.60;99.90;;;;;;5018334;28;20033;-59
2022/06/03 04:39:35;;;;;;;10.13;8.15;;;13.40;99.90;;;;;;5004754;28;20053;-59
2022/06/03 04:42:13;;;;;;;10.02;9.13;;;13.40;99.90;;;;;;5018650;28;20301;-59
2022/06/03 04:44:58;;;;;;;9.32;8.27;;;13.50;99.90;;;;;;5018230;28;20033;-59
2022/06/03 04:47:42;;;;;;;9.90;8.90;;;13.60;99.90;;;;;;5017607;28;20061;-61
2022/06/03 04:50:11;;;;;;;9.00;8.13;;;13.50;99.90;;;;;;5001089;28;20049;-61
2022/06/03 04:53:01;;;;;;;9.73;8.75;;;13.50;99.90;;;;;;5018101;28;20033;-61
2022/06/03 04:55:48;;;;;;;9.93;8.40;;;13.50;99.90;;;;;;5017277;28;20026;-60
2022/06/03 04:58:32;;;;;;;12.45;9.00;;;13.70;99.90;;;;;;4978809;28;20063;-60
2022/06/03 05:01:07;;;;;;;9.60;8.70;;;13.80;99.90;;;;;;5016968;28;20043;-59
2022/06/03 05:03:45;;;;;;;9.77;8.77;;;14.00;99.90;;;;;;5017299;28;20111;-59
2022/06/03 05:07:15;;;;;;;11.80;8.75;;;14.10;99.90;;;;;;5017221;28;20034;-60
2022/06/03 05:10:07;;;;;;;13.00;8.57;;;14.10;99.90;;;;;;5017900;28;20298;-60
2022/06/03 05:12:59;;;;;;;10.50;8.98;;;13.90;99.90;;;;;;5017001;28;20186;-61
2022/06/03 05:15:36;;;;;;;9.77;8.10;;;14.00;99.90;;;;;;5017637;28;20030;-60
2022/06/03 05:18:11;;;;;;;9.60;8.15;;;14.10;99.90;;;;;;5016832;28;20100;-59
2022/06/03 05:20:49;;;;;;;9.43;8.52;;;14.20;99.90;;;;;;5017554;28;20041;-59
2022/06/03 05:23:32;;;;;;;10.05;9.05;;;14.40;99.90;;;;;;5016875;28;20049;-61
2022/06/03 05:26:35;;;;;;;9.75;7.97;;;14.50;99.90;;;;;;5017616;28;20116;-59
2022/06/03 05:29:47;;;;;;;8.85;8.05;;;14.70;99.90;;;;;;5017486;28;20378;-59
2022/06/03 05:32:39;;;;;;;9.25;8.35;;;14.70;99.90;;;;;;5017518;28;20038;-58
2022/06/03 05:35:25;;;;;;;10.07;8.30;;;14.80;99.90;;;;;;5017526;28;20068;-59
2022/06/03 05:38:35;;;;;;;9.90;8.90;;;15.00;99.90;;;;;;5017353;28;20033;-60
2022/06/03 05:44:28;;;;;;;9.77;7.65;;;15.20;99.90;;;;;;5017848;28;20462;-61
2022/06/03 05:47:05;;;;;;;13.13;7.97;;;15.30;99.90;;;;;;5017175;28;20034;-61
2022/06/03 05:49:46;;;;;;;8.68;7.88;;;15.30;99.90;;;;;;5017284;28;20382;-61
2022/06/03 05:52:29;;;;;;;8.85;7.97;;;15.30;99.90;;;;;;5017000;28;20409;-61
2022/06/03 05:54:57;;;;;;;8.65;7.85;;;15.40;99.90;;;;;;5017534;28;20267;-61
2022/06/03 05:57:42;;;;;;;9.48;8.52;;;15.50;99.90;;;;;;5017116;28;20387;-61
2022/06/03 06:00:34;;;;;;;9.82;8.90;;;15.60;99.90;;;;;;5016324;28;20033;-60
2022/06/03 06:03:14;;;;;;;11.33;8.40;;;15.70;99.90;;;;;;5017117;28;20042;-59
2022/06/03 06:05:52;;;;;;;8.75;7.68;;;15.60;99.90;;;;;;5016503;28;20413;-61
2022/06/03 06:08:51;;;;;;;8.35;7.65;;;15.70;99.90;;;;;;5017002;28;20025;-59
2022/06/03 06:11:38;;;;;;;8.52;7.72;;;15.70;99.90;;;;;;4982259;28;20045;-60
2022/06/03 06:14:18;;;;;;;9.93;7.75;;;15.80;99.90;;;;;;5016994;28;20108;-60
2022/06/03 06:16:46;;;;;;;8.30;7.60;;;15.90;99.90;;;;;;5016937;28;20057;-60
2022/06/03 06:19:41;;;;;;;8.00;7.30;;;16.10;99.90;;;;;;5016897;28;20022;-60
2022/06/03 06:22:09;;;;;;;8.98;7.85;;;16.20;99.90;;;;;;5016876;28;20037;-60
2022/06/03 06:24:35;;;;;;;8.65;7.88;;;16.30;99.90;;;;;;5017099;28;20037;-63
2022/06/03 06:27:27;;;;;;;8.05;7.25;;;16.30;99.90;;;;;;5016821;28;20031;-60
2022/06/03 06:30:21;;;;;;;7.85;7.15;;;16.50;99.90;;;;;;5016804;28;20034;-60
2022/06/03 06:33:08;;;;;;;8.90;7.65;;;16.50;99.90;;;;;;5016931;28;20080;-60
2022/06/03 06:35:52;;;;;;;10.82;8.15;;;16.50;99.90;;;;;;5020724;28;20033;-60
2022/06/03 06:38:46;;;;;;;8.60;7.53;;;16.60;99.90;;;;;;5020577;28;20018;-60
2022/06/03 06:41:45;;;;;;;7.50;6.80;;;16.50;99.90;;;;;;5020573;28;20109;-60
2022/06/03 06:44:33;;;;;;;8.48;7.15;;;16.60;99.90;;;;;;5020449;28;20069;-60
2022/06/03 06:47:22;;;;;;;7.03;6.32;;;16.80;99.90;;;;;;5020403;28;20033;-60
2022/06/03 06:50:18;;;;;;;10.13;6.82;;;16.90;99.90;;;;;;5020952;28;20033;-60
2022/06/03 06:53:11;;;;;;;7.90;7.13;;;16.90;99.90;;;;;;5020472;28;20107;-60
2022/06/03 06:55:46;;;;;;;7.40;6.78;;;16.90;99.90;;;;;;5019516;28;20026;-60
2022/06/03 06:58:45;;;;;;;9.68;6.82;;;17.00;99.90;;;;;;5020290;28;20041;-62
2022/06/03 07:01:20;;;;;;;7.45;6.75;;;17.20;99.90;;;;;;5020038;28;20318;-65
2022/06/03 07:03:57;;;;;;;9.07;6.35;;;17.40;99.90;;;;;;5019939;28;20033;-64
2022/06/03 07:06:34;;;;;;;7.80;7.07;;;17.50;99.90;;;;;;5020374;28;20025;-64
2022/06/03 07:09:11;;;;;;;6.80;6.07;;;17.60;99.90;;;;;;5019511;28;20034;-64
2022/06/03 07:12:02;;;;;;;8.20;7.00;;;17.60;99.90;;;;;;5019921;28;20061;-64
2022/06/03 07:14:40;;;;;;;7.05;6.35;;;17.60;99.90;;;;;;5020115;28;20402;-64
2022/06/03 07:20:30;;;;;;;7.85;6.10;;;17.70;99.90;;;;;;5019935;28;20026;-64
2022/06/03 07:23:04;;;;;;;7.38;6.00;;;17.80;99.90;;;;;;5019883;28;20033;-64
2022/06/03 07:25:47;;;;;;;6.47;5.97;;;17.90;99.90;;;;;;5019869;28;20073;-64
2022/06/03 07:28:28;;;;;;;7.47;6.20;;;18.00;99.90;;;;;;5019788;28;20041;-64
2022/06/03 07:31:37;;;;;;;7.30;6.57;;;18.00;99.90;;;;;;5019689;28;20029;-63
2022/06/03 07:34:11;;;;;;;6.97;6.03;;;18.00;99.90;;;;;;5011200;28;20045;-64
2022/06/03 07:37:08;;;;;;;7.60;6.40;;;18.10;99.90;;;;;;5019573;28;20121;-64
2022/06/03 07:39:44;;;;;;;6.13;5.50;;;18.10;99.90;;;;;;5019636;28;20352;-64
2022/06/03 07:42:24;;;;;;;6.35;5.80;;;18.30;99.90;;;;;;5018819;28;20112;-64
2022/06/03 07:44:56;;;;;;;6.63;5.93;;;18.50;99.90;;;;;;5019206;28;20040;-65
2022/06/03 07:47:24;;;;;;;6.30;5.80;;;18.60;99.90;;;;;;5019387;28;20030;-64
2022/06/03 07:50:00;;;;;;;5.90;5.22;;;18.80;99.90;;;;;;5019289;28;20357;-64
2022/06/03 07:52:47;;;;;;;5.97;5.32;;;18.80;99.90;;;;;;5019225;28;20033;-63
2022/06/03 07:55:19;;;;;;;7.93;5.40;;;18.80;99.90;;;;;;5018583;28;20038;-63
2022/06/03 07:57:51;;;;;;;7.28;5.70;;;18.80;99.90;;;;;;5018426;28;20354;-63
2022/06/03 08:00:19;;;;;;;6.00;5.10;;;18.90;99.90;;;;;;5019182;28;20270;-63
2022/06/03 08:02:46;;;;;;;5.43;4.65;;;19.10;99.90;;;;;;5019019;28;20026;-63
2022/06/03 08:05:19;;;;;;;5.60;5.10;;;19.30;99.90;;;;;;5018998;28;20346;-63
2022/06/03 08:10:58;;;;;;;4.60;4.20;;;19.60;99.90;;;;;;5018932;28;20038;-65
2022/06/03 08:13:41;;;;;;;5.93;4.10;;;19.70;99.90;;;;;;5018769;28;20069;-63
2022/06/03 08:16:29;;;;;;;4.65;4.20;;;19.70;99.90;;;;;;5019134;28;20017;-63
2022/06/03 08:18:59;;;;;;;4.55;3.90;;;20.00;99.90;;;;;;5018762;28;20125;-62
2022/06/03 08:21:41;;;;;;;5.35;3.60;;;20.00;99.90;;;;;;5018693;28;20044;-64
2022/06/03 08:24:14;;;;;;;4.43;3.95;;;20.20;99.90;;;;;;5017654;28;20029;-65
2022/06/03 08:26:46;;;;;;;5.95;4.40;;;20.40;99.90;;;;;;5018442;28;20049;-63
2022/06/03 08:29:44;;;;;;;5.70;3.53;;;20.50;99.90;;;;;;5019274;28;20414;-63
2022/06/03 08:32:35;;;;;;;4.85;3.90;;;20.60;99.90;;;;;;5018455;28;20454;-63
2022/06/03 08:35:10;;;;;;;5.45;3.70;;;20.70;99.90;;;;;;5019043;28;20057;-63
2022/06/03 08:37:46;;;;;;;7.00;4.10;;;20.80;99.90;;;;;;5018471;28;20022;-64
2022/06/03 08:40:45;;;;;;;6.78;4.13;;;20.80;99.90;;;;;;5001567;28;20341;-63
2022/06/03 08:43:22;;;;;;;3.90;3.50;;;21.10;99.90;;;;;;5018362;28;20390;-63
2022/06/03 08:45:55;;;;;;;6.80;3.85;;;21.20;99.90;;;;;;5018839;28;20034;-64
2022/06/03 08:48:28;;;;;;;6.95;3.60;;;21.30;99.90;;;;;;5017609;28;20038;-65
2022/06/03 08:50:58;;;;;;;6.40;4.30;;;21.30;99.90;;;;;;5018587;28;20030;-63
2022/06/03 08:53:40;;;;;;;7.35;3.67;;;21.30;99.90;;;;;;5017438;28;20045;-63
2022/06/03 08:56:11;;;;;;;4.07;3.33;;;21.30;99.90;;;;;;5018329;28;20021;-63
2022/06/03 08:58:56;;;;;;;5.15;3.55;;;21.40;99.90;;;;;;5017885;28;20025;-63
2022/06/03 09:01:37;;;;;;;6.25;3.78;;;21.40;99.90;;;;;;5016944;28;20046;-62
2022/06/03 09:04:22;;;;;;;3.08;2.78;;;21.40;99.90;;;;;;5017806;28;20033;-63
2022/06/03 09:07:00;;;;;;;4.60;3.42;;;21.40;99.90;;;;;;5017420;28;20044;-63
2022/06/03 09:09:51;;;;;;;4.68;3.60;;;21.40;99.90;;;;;;5017966;28;20026;-63
2022/06/03 09:12:29;;;;;;;3.92;3.63;;;21.40;99.90;;;;;;5017785;28;20404;-63
2022/06/03 09:15:00;;;;;;;3.30;3.10;;;21.50;99.90;;;;;;5017843;28;20034;-63
2022/06/03 09:17:51;;;;;;;4.07;3.70;;;21.60;99.90;;;;;;5017139;28;20072;-64
2022/06/03 09:20:48;;;;;;;3.88;3.10;;;21.80;99.90;;;;;;5016955;28;20026;-63
2022/06/03 09:23:17;;;;;;;3.38;3.03;;;21.80;99.90;;;;;;5009936;28;20048;-64
2022/06/03 09:25:50;;;;;;;10.15;3.00;;;21.90;99.90;;;;;;5017598;28;20064;-63
2022/06/03 09:28:38;;;;;;;4.22;3.30;;;21.90;99.90;;;;;;5017639;28;20374;-63
2022/06/03 09:31:10;;;;;;;3.38;2.70;;;21.90;99.90;;;;;;5017541;28;20118;-63
2022/06/03 09:33:38;;;;;;;5.07;2.72;;;22.10;99.90;;;;;;5017477;28;20402;-62
2022/06/03 09:36:13;;;;;;;3.53;3.03;;;22.20;99.90;;;;;;5017358;28;20088;-62
2022/06/03 09:38:44;;;;;;;3.97;3.40;;;22.30;99.90;;;;;;5017660;28;20083;-63
2022/06/03 09:41:12;;;;;;;3.25;2.55;;;22.40;99.90;;;;;;5016565;28;20018;-63
2022/06/03 09:43:42;;;;;;;2.75;1.60;;;22.50;99.90;;;;;;5017413;28;20072;-63
2022/06/03 09:46:13;;;;;;;2.40;2.20;;;22.70;99.90;;;;;;5017502;28;20136;-64
2022/06/03 09:48:41;;;;;;;3.42;2.03;;;22.90;99.90;;;;;;5017323;28;20026;-63
2022/06/03 09:51:24;;;;;;;5.32;2.00;;;22.90;99.90;;;;;;5017520;28;20041;-63
2022/06/03 09:53:50;;;;;;;4.88;2.30;;;23.10;99.90;;;;;;5017351;28;20101;-64
2022/06/03 09:56:26;;;;;;;4.45;2.17;;;23.20;99.90;;;;;;5016725;28;20129;-61
2022/06/03 09:58:59;;;;;;;4.75;2.08;;;23.40;99.90;;;;;;5016593;28;20037;-63
2022/06/03 10:01:25;;;;;;;3.38;2.15;;;23.50;99.90;;;;;;5017020;28;20188;-62
2022/06/03 10:03:59;;;;;;;1.77;1.67;;;23.60;99.90;;;;;;5000377;28;20376;-62
2022/06/03 10:06:43;;;;;;;2.70;2.20;;;23.60;99.90;;;;;;5017430;28;20026;-63
2022/06/03 10:17:46;;;;;;;2.03;1.30;;;23.80;99.90;;;;;;5021282;28;20030;-63
2022/06/03 10:20:12;;;;;;;3.72;1.33;;;24.00;99.90;;;;;;5021038;28;20425;-65
2022/06/03 10:22:38;;;;;;;2.78;1.15;;;24.10;99.90;;;;;;5020932;28;20108;-63
2022/06/03 10:25:04;;;;;;;1.63;1.15;;;24.10;99.90;;;;;;5020907;28;20041;-64
2022/06/03 10:27:30;;;;;;;2.55;1.48;;;24.30;99.90;;;;;;5020894;28;20030;-64
2022/06/03 10:29:59;;;;;;;2.75;1.08;;;24.40;99.90;;;;;;5021439;28;20045;-63
2022/06/03 10:32:25;;;;;;;1.13;1.02;;;24.40;99.90;;;;;;5020750;28;20034;-62
2022/06/03 10:34:57;;;;;;;3.40;1.52;;;24.80;99.90;;;;;;5020783;28;20033;-63
2022/06/03 10:37:26;;;;;;;2.78;1.10;;;24.70;99.60;;;;;;5020807;28;20132;-63
2022/06/03 10:39:54;;;;;;;6.38;1.50;;;25.00;99.20;;;;;;5020694;28;20025;-63
2022/06/03 10:42:22;;;;;;;3.63;1.20;;;25.20;99.10;;;;;;5020736;28;20394;-63
2022/06/03 10:44:54;;;;;;;5.25;1.17;;;25.40;97.50;;;;;;5020595;28;20044;-63
2022/06/03 10:47:22;;;;;;;2.10;1.02;;;25.50;97.20;;;;;;5020590;28;20041;-65
2022/06/03 10:49:59;;;;;;;3.45;1.10;;;25.20;96.60;;;;;;5019815;28;20025;-64
2022/06/03 11:01:41;;;;;;;4.20;0.98;;;25.20;95.20;;;;;;5020006;28;20100;-64
2022/06/03 11:04:29;;;;;;;1.95;0.73;;;25.70;93.40;;;;;;5020429;28;20022;-61
2022/06/03 11:06:59;;;;;;;4.15;0.90;;;26.40;91.90;;;;;;5020132;28;20124;-62
2022/06/03 11:09:25;;;;;;;0.80;0.80;;;27.00;91.30;;;;;;5019130;28;20040;-63
2022/06/03 11:12:02;;;;;;;3.13;1.00;;;28.50;88.90;;;;;;5019726;28;20048;-64
2022/06/03 11:14:40;;;;;;;3.40;1.23;;;29.60;81.60;;;;;;5019450;28;20275;-64
2022/06/03 11:17:18;;;;;;;2.83;1.00;;;29.60;80.30;;;;;;5020120;28;20033;-64
2022/06/03 11:19:47;;;;;;;2.22;1.20;;;29.70;78.20;;;;;;5019641;28;20298;-65
2022/06/03 11:22:34;;;;;;;2.65;1.10;;;30.20;75.40;;;;;;5019566;28;20037;-65
2022/06/03 11:25:02;;;;;;;1.40;0.80;;;30.40;72.90;;;;;;5019868;28;20042;-64
2022/06/03 11:27:42;;;;;;;2.13;0.82;;;31.00;69.00;;;;;;5019968;28;20121;-63
2022/06/03 11:30:26;;;;;;;1.90;1.10;;;30.60;66.30;;;;;;5019711;28;20046;-62
2022/06/03 11:32:59;;;;;;;1.17;0.90;;;31.00;63.90;;;;;;5019574;28;20070;-64
2022/06/03 11:35:44;;;;;;;2.15;0.85;;;30.70;65.10;;;;;;5020171;28;20026;-63
2022/06/03 11:38:17;;;;;;;1.02;0.70;;;30.90;65.80;;;;;;5019630;28;20037;-63
2022/06/03 11:40:52;;;;;;;1.85;0.90;;;30.90;63.80;;;;;;5019338;28;20025;-65
2022/06/03 11:43:51;;;;;;;2.83;0.98;;;30.90;62.70;;;;;;5019586;28;20038;-64
2022/06/03 11:46:36;;;;;;;0.82;0.80;;;30.90;63.30;;;;;;5019408;28;20127;-65
2022/06/03 11:49:05;;;;;;;3.58;0.70;;;30.70;60.70;;;;;;5018798;28;20049;-63
2022/06/03 11:51:31;;;;;;;1.92;0.70;;;30.90;62.00;;;;;;5019270;28;20030;-63
2022/06/03 11:53:58;;;;;;;2.80;0.70;;;31.60;59.30;;;;;;5018448;28;20390;-64
2022/06/03 11:56:26;;;;;;;1.27;0.80;;;31.60;57.90;;;;;;5019117;28;20105;-63
2022/06/03 11:59:14;;;;;;;3.17;0.70;;;32.30;57.60;;;;;;5019689;28;20401;-64
2022/06/03 12:01:49;;;;;;;1.48;0.60;;;33.60;56.10;;;;;;5018847;28;20156;-64
2022/06/03 12:04:20;;;;;;;2.65;0.70;;;33.50;54.00;;;;;;5018932;28;20033;-64
2022/06/03 12:07:13;;;;;;;1.50;1.08;;;34.30;52.30;;;;;;5018957;28;20030;-64
2022/06/03 12:09:45;;;;;;;1.00;0.80;;;33.40;51.20;;;;;;5018159;28;20025;-64
2022/06/03 12:15:26;;;;;;;1.70;0.80;;;33.20;52.70;;;;;;5019069;28;20221;-65
2022/06/03 12:17:52;;;;;;;2.03;0.90;;;32.50;53.70;;;;;;5018703;28;20030;-64
2022/06/03 12:20:30;;;;;;;2.95;1.00;;;32.80;52.20;;;;;;5018985;28;20105;-63
2022/06/03 12:23:11;;;;;;;1.42;0.90;;;33.80;50.50;;;;;;5018554;28;20061;-64
2022/06/03 12:25:53;;;;;;;2.78;0.95;;;34.30;49.70;;;;;;5018936;28;20453;-64
2022/06/03 12:28:21;;;;;;;;;;;33.90;50.50;;;;;;5019355;28;20064;-63
2022/06/03 12:30:54;;;;;;;2.75;0.98;;;34.50;48.20;;;;;;5017708;28;19967;-64
2022/06/03 12:33:26;;;;;;;2.22;1.10;;;34.30;49.00;;;;;;5019195;28;20265;-64
2022/06/03 12:36:00;;;;;;;2.33;0.80;;;34.20;48.50;;;;;;5018774;28;20385;-64
2022/06/03 12:38:30;;;;;;;1.60;1.00;;;34.80;47.90;;;;;;5018261;28;20096;-64
2022/06/03 12:40:58;;;;;;;2.33;0.90;;;33.90;48.90;;;;;;5018220;28;20025;-63
2022/06/03 12:43:31;;;;;;;1.17;0.88;;;34.10;47.30;;;;;;5018745;28;20065;-62
2022/06/03 12:46:10;;;;;;;2.20;0.90;;;34.60;47.30;;;;;;5018118;28;20041;-62
2022/06/03 12:48:51;;;;;;;0.90;0.70;;;34.60;45.80;;;;;;5018327;28;20349;-62
2022/06/03 12:51:24;;;;;;;1.30;0.70;;;35.60;45.20;;;;;;5018169;28;20305;-63
2022/06/03 12:53:56;;;;;;;2.45;1.00;;;34.30;47.60;;;;;;5018166;28;20034;-63
2022/06/03 12:56:33;;;;;;;1.00;0.90;;;33.50;46.40;;;;;;5018086;28;20101;-63
2022/06/03 12:59:07;;;;;;;2.55;1.00;;;33.60;46.40;;;;;;5018627;28;20037;-63
2022/06/03 13:01:47;;;;;;;0.98;0.80;;;33.80;46.00;;;;;;5017933;28;20056;-63
2022/06/03 13:04:39;;;;;;;2.20;1.17;;;34.60;45.60;;;;;;5017228;28;20298;-63
2022/06/03 13:07:26;;;;;;;1.00;0.90;;;32.80;45.90;;;;;;5017895;28;20087;-63
2022/06/03 13:10:04;;;;;;;2.67;0.98;;;32.90;45.20;;;;;;5017797;28;20117;-63
2022/06/03 13:12:33;;;;;;;3.75;1.10;;;34.20;44.80;;;;;;5016980;28;20034;-64
2022/06/03 13:15:17;;;;;;;2.58;1.20;;;34.70;42.70;;;;;;5017736;28;20099;-64
2022/06/03 13:18:20;;;;;;;2.15;0.98;;;35.60;43.00;;;;;;5017742;28;20401;-63
2022/06/03 13:21:09;;;;;;;1.55;1.10;;;35.60;43.40;;;;;;5017617;28;20033;-65
2022/06/03 13:23:46;;;;;;;1.77;1.00;;;34.30;44.10;;;;;;5012121;28;20064;-64
2022/06/03 13:26:21;;;;;;;0.95;0.80;;;33.80;44.70;;;;;;5017614;28;20298;-64
2022/06/03 13:28:59;;;;;;;2.78;0.90;;;35.10;43.60;;;;;;5017280;28;20164;-64
2022/06/03 13:31:41;;;;;;;2.58;0.93;;;35.30;43.10;;;;;;5017790;28;20030;-65
2022/06/03 13:34:10;;;;;;;2.25;0.90;;;35.40;42.80;;;;;;5017448;28;20029;-62
2022/06/03 13:36:37;;;;;;;1.52;1.00;;;35.20;41.70;;;;;;5017294;28;20022;-64
2022/06/03 13:39:10;;;;;;;1.23;1.08;;;35.00;42.50;;;;;;5016555;28;20108;-65
2022/06/03 13:44:40;;;;;;;3.08;0.90;;;34.10;44.30;;;;;;5016713;28;20045;-61
2022/06/03 13:47:27;;;;;;;2.70;1.13;;;35.00;44.50;;;;;;5017167;28;20042;-61
2022/06/03 13:50:18;;;;;;;2.95;1.10;;;34.80;43.60;;;;;;5017360;28;20121;-62
2022/06/03 13:52:52;;;;;;;1.30;1.08;;;34.50;43.50;;;;;;5017006;28;20101;-62
2022/06/03 13:55:32;;;;;;;2.20;1.23;;;34.00;44.50;;;;;;5017633;28;20022;-62
2022/06/03 13:58:27;;;;;;;1.10;0.90;;;33.90;44.70;;;;;;5017157;28;20026;-62
2022/06/03 14:00:59;;;;;;;2.63;1.20;;;34.20;44.70;;;;;;5017476;28;20042;-63
2022/06/03 14:03:54;;;;;;;2.58;1.08;;;33.90;43.80;;;;;;5017182;28;20072;-62
2022/06/03 14:06:28;;;;;;;1.88;1.40;;;35.20;43.40;;;;;;5017486;28;20330;-62
2022/06/03 14:09:10;;;;;;;1.40;1.20;;;34.10;44.80;;;;;;5017049;28;20048;-63
2022/06/03 14:11:41;;;;;;;;;;;34.90;44.30;;;;;;5017286;28;20034;-63
2022/06/03 14:14:13;;;;;;;2.60;1.15;;;35.80;43.80;;;;;;5016311;28;19909;-63
2022/06/03 14:16:42;;;;;;;1.90;1.50;;;36.60;42.00;;;;;;5017032;28;20034;-63
2022/06/03 14:19:08;;;;;;;1.98;1.25;;;37.30;41.20;;;;;;5016949;28;20306;-63
2022/06/03 14:21:51;;;;;;;1.73;1.02;;;37.00;41.80;;;;;;5016077;28;20037;-62
2022/06/03 14:24:49;;;;;;;1.15;1.00;;;37.80;40.40;;;;;;5017381;28;20041;-63
2022/06/03 14:27:29;;;;;;;1.50;1.10;;;38.80;40.60;;;;;;4994680;28;20116;-63
2022/06/03 14:30:17;;;;;;;1.67;0.90;;;39.70;38.50;;;;;;5017338;28;20034;-64
2022/06/03 14:32:48;;;;;;;2.45;0.88;;;39.60;38.80;;;;;;5016305;28;20279;-64
2022/06/03 14:35:48;;;;;;;1.70;1.30;;;40.30;37.90;;;;;;5016972;28;20030;-63
2022/06/03 14:38:13;;;;;;;2.63;1.23;;;38.80;37.80;;;;;;4995131;28;20042;-65